sensor_id;sensor_type;location;lat;lon;timestamp;temperature;humidity
52181;DHT22;38158;53.338;6.514;2023-05-07T00:01:42;11.30;99.90
52181;DHT22;38158;53.338;6.514;2023-05-07T00:04:08;11.30;99.90
52181;DHT22;38158;53.338;6.514;2023-05-07T00:06:34;11.30;99.90
52181;DHT22;38158;53.338;6.514;2023-05-07T00:09:00;11.20;99.90
52181;DHT22;38158;53.338;6.514;2023-05-07T00:11:27;11.20;99.90
52181;DHT22;38158;53.338;6.514;2023-05-07T00:13:53;11.20;99.90
52181;DHT22;38158;53.338;6.514;2023-05-07T00:16:19;11.20;99.90
52181;DHT22;38158;53.338;6.514;2023-05-07T00:18:45;11.20;99.90
52181;DHT22;38158;53.338;6.514;2023-05-07T00:21:11;11.20;99.90
52181;DHT22;38158;53.338;6.514;2023-05-07T00:23:37;11.20;99.90
52181;DHT22;38158;53.338;6.514;2023-05-07T00:26:03;11.20;99.90
52181;DHT22;38158;53.338;6.514;2023-05-07T00:28:29;11.10;99.90
52181;DHT22;38158;53.338;6.514;2023-05-07T00:30:54;11.10;99.90
52181;DHT22;38158;53.338;6.514;2023-05-07T00:33:20;11.10;99.90
52181;DHT22;38158;53.338;6.514;2023-05-07T00:35:47;11.10;99.90
52181;DHT22;38158;53.338;6.514;2023-05-07T00:38:14;11.10;99.90
52181;DHT22;38158;53.338;6.514;2023-05-07T00:40:39;11.10;99.90
52181;DHT22;38158;53.338;6.514;2023-05-07T00:43:05;11.00;99.90
52181;DHT22;38158;53.338;6.514;2023-05-07T00:45:33;11.10;99.90
52181;DHT22;38158;53.338;6.514;2023-05-07T00:48:00;11.00;99.90
52181;DHT22;38158;53.338;6.514;2023-05-07T00:50:28;11.00;99.90
52181;DHT22;38158;53.338;6.514;2023-05-07T00:52:54;11.00;99.90
52181;DHT22;38158;53.338;6.514;2023-05-07T00:55:22;11.10;99.90
52181;DHT22;38158;53.338;6.514;2023-05-07T00:57:49;11.10;99.90
52181;DHT22;38158;53.338;6.514;2023-05-07T01:00:15;11.00;99.90
52181;DHT22;38158;53.338;6.514;2023-05-07T01:02:42;11.00;99.90
52181;DHT22;38158;53.338;6.514;2023-05-07T01:05:10;11.00;99.90
52181;DHT22;38158;53.338;6.514;2023-05-07T01:07:37;11.00;99.90
52181;DHT22;38158;53.338;6.514;2023-05-07T01:10:05;11.00;99.90
52181;DHT22;38158;53.338;6.514;2023-05-07T01:12:32;11.00;99.90
52181;DHT22;38158;53.338;6.514;2023-05-07T01:14:58;11.00;99.90
52181;DHT22;38158;53.338;6.514;2023-05-07T01:17:24;11.00;99.90
52181;DHT22;38158;53.338;6.514;2023-05-07T01:19:50;11.00;99.90
52181;DHT22;38158;53.338;6.514;2023-05-07T01:22:17;10.90;99.90
52181;DHT22;38158;53.338;6.514;2023-05-07T01:24:45;10.90;99.90
52181;DHT22;38158;53.338;6.514;2023-05-07T01:27:11;10.90;99.90
52181;DHT22;38158;53.338;6.514;2023-05-07T01:29:36;10.90;99.90
52181;DHT22;38158;53.338;6.514;2023-05-07T01:32:02;10.90;99.90
52181;DHT22;38158;53.338;6.514;2023-05-07T01:34:31;10.90;99.90
52181;DHT22;38158;53.338;6.514;2023-05-07T01:36:59;10.90;99.90
52181;DHT22;38158;53.338;6.514;2023-05-07T01:39:27;10.90;99.90
52181;DHT22;38158;53.338;6.514;2023-05-07T01:41:57;10.90;99.90
52181;DHT22;38158;53.338;6.514;2023-05-07T01:44:25;10.80;99.90
52181;DHT22;38158;53.338;6.514;2023-05-07T01:46:51;10.90;99.90
52181;DHT22;38158;53.338;6.514;2023-05-07T01:49:18;10.90;99.90
52181;DHT22;38158;53.338;6.514;2023-05-07T01:51:44;10.90;99.90
52181;DHT22;38158;53.338;6.514;2023-05-07T01:54:10;10.90;99.90
52181;DHT22;38158;53.338;6.514;2023-05-07T01:56:35;10.90;99.90
52181;DHT22;38158;53.338;6.514;2023-05-07T01:59:01;10.80;99.90
52181;DHT22;38158;53.338;6.514;2023-05-07T02:01:27;10.80;99.90
52181;DHT22;38158;53.338;6.514;2023-05-07T02:03:53;10.90;99.90
52181;DHT22;38158;53.338;6.514;2023-05-07T02:06:19;10.80;99.90
52181;DHT22;38158;53.338;6.514;2023-05-07T02:08:46;10.80;99.90
52181;DHT22;38158;53.338;6.514;2023-05-07T02:11:12;10.80;99.90
52181;DHT22;38158;53.338;6.514;2023-05-07T02:13:38;10.90;99.90
52181;DHT22;38158;53.338;6.514;2023-05-07T02:16:04;10.80;99.90
52181;DHT22;38158;53.338;6.514;2023-05-07T02:18:30;10.80;99.90
52181;DHT22;38158;53.338;6.514;2023-05-07T02:20:56;10.80;99.90
52181;DHT22;38158;53.338;6.514;2023-05-07T02:23:21;10.80;99.90
52181;DHT22;38158;53.338;6.514;2023-05-07T02:25:47;10.80;99.90
52181;DHT22;38158;53.338;6.514;2023-05-07T02:28:13;10.80;99.90
52181;DHT22;38158;53.338;6.514;2023-05-07T02:30:39;10.80;99.90
52181;DHT22;38158;53.338;6.514;2023-05-07T02:33:05;10.80;99.90
52181;DHT22;38158;53.338;6.514;2023-05-07T02:35:32;10.80;99.90
52181;DHT22;38158;53.338;6.514;2023-05-07T02:37:58;10.80;99.90
52181;DHT22;38158;53.338;6.514;2023-05-07T02:40:24;10.70;99.90
52181;DHT22;38158;53.338;6.514;2023-05-07T02:42:49;10.80;99.90
52181;DHT22;38158;53.338;6.514;2023-05-07T02:45:15;10.80;99.90
52181;DHT22;38158;53.338;6.514;2023-05-07T02:47:41;10.80;99.90
52181;DHT22;38158;53.338;6.514;2023-05-07T02:50:07;10.70;99.90
52181;DHT22;38158;53.338;6.514;2023-05-07T02:52:33;10.70;99.90
52181;DHT22;38158;53.338;6.514;2023-05-07T02:54:58;10.70;99.90
52181;DHT22;38158;53.338;6.514;2023-05-07T02:57:24;10.70;99.90
52181;DHT22;38158;53.338;6.514;2023-05-07T02:59:50;10.70;99.90
52181;DHT22;38158;53.338;6.514;2023-05-07T03:02:16;10.70;99.90
52181;DHT22;38158;53.338;6.514;2023-05-07T03:04:41;10.60;99.90
52181;DHT22;38158;53.338;6.514;2023-05-07T03:07:07;10.60;99.90
52181;DHT22;38158;53.338;6.514;2023-05-07T03:09:33;10.60;99.90
52181;DHT22;38158;53.338;6.514;2023-05-07T03:11:59;10.60;99.90
52181;DHT22;38158;53.338;6.514;2023-05-07T03:14:24;10.50;99.90
52181;DHT22;38158;53.338;6.514;2023-05-07T03:16:50;10.50;99.90
52181;DHT22;38158;53.338;6.514;2023-05-07T03:19:16;10.50;99.90
52181;DHT22;38158;53.338;6.514;2023-05-07T03:21:42;10.50;99.90
52181;DHT22;38158;53.338;6.514;2023-05-07T03:24:07;10.50;99.90
52181;DHT22;38158;53.338;6.514;2023-05-07T03:26:33;10.50;99.90
52181;DHT22;38158;53.338;6.514;2023-05-07T03:28:58;10.40;99.90
52181;DHT22;38158;53.338;6.514;2023-05-07T03:31:24;10.40;99.90
52181;DHT22;38158;53.338;6.514;2023-05-07T03:33:54;10.50;99.90
52181;DHT22;38158;53.338;6.514;2023-05-07T03:36:21;10.50;99.90
52181;DHT22;38158;53.338;6.514;2023-05-07T03:38:47;10.50;99.90
52181;DHT22;38158;53.338;6.514;2023-05-07T03:41:13;10.50;99.90
52181;DHT22;38158;53.338;6.514;2023-05-07T03:43:39;10.50;99.90
52181;DHT22;38158;53.338;6.514;2023-05-07T03:46:04;10.50;99.90
52181;DHT22;38158;53.338;6.514;2023-05-07T03:48:30;10.50;99.90
52181;DHT22;38158;53.338;6.514;2023-05-07T03:50:57;10.50;99.90
52181;DHT22;38158;53.338;6.514;2023-05-07T03:53:23;10.40;99.90
52181;DHT22;38158;53.338;6.514;2023-05-07T03:55:49;10.40;99.90
52181;DHT22;38158;53.338;6.514;2023-05-07T03:58:15;10.40;99.90
52181;DHT22;38158;53.338;6.514;2023-05-07T04:00:41;10.40;99.90
52181;DHT22;38158;53.338;6.514;2023-05-07T04:03:07;10.40;99.90
52181;DHT22;38158;53.338;6.514;2023-05-07T04:05:32;10.40;99.90
52181;DHT22;38158;53.338;6.514;2023-05-07T04:07:59;10.40;99.90
52181;DHT22;38158;53.338;6.514;2023-05-07T04:10:25;10.40;99.90
52181;DHT22;38158;53.338;6.514;2023-05-07T04:12:50;10.40;99.90
52181;DHT22;38158;53.338;6.514;2023-05-07T04:15:16;10.40;99.90
52181;DHT22;38158;53.338;6.514;2023-05-07T04:17:42;10.40;99.90
52181;DHT22;38158;53.338;6.514;2023-05-07T04:20:09;10.40;99.90
52181;DHT22;38158;53.338;6.514;2023-05-07T04:22:36;10.30;99.90
52181;DHT22;38158;53.338;6.514;2023-05-07T04:25:02;10.20;99.90
52181;DHT22;38158;53.338;6.514;2023-05-07T04:27:28;10.20;99.90
52181;DHT22;38158;53.338;6.514;2023-05-07T04:29:54;10.20;99.90
52181;DHT22;38158;53.338;6.514;2023-05-07T04:32:21;10.10;99.90
52181;DHT22;38158;53.338;6.514;2023-05-07T04:34:47;10.10;99.90
52181;DHT22;38158;53.338;6.514;2023-05-07T04:37:13;10.10;99.90
52181;DHT22;38158;53.338;6.514;2023-05-07T04:39:39;10.10;99.90
52181;DHT22;38158;53.338;6.514;2023-05-07T04:42:04;10.10;99.90
52181;DHT22;38158;53.338;6.514;2023-05-07T04:44:34;10.10;99.90
52181;DHT22;38158;53.338;6.514;2023-05-07T04:47:02;10.10;99.90
52181;DHT22;38158;53.338;6.514;2023-05-07T04:49:28;10.10;99.90
52181;DHT22;38158;53.338;6.514;2023-05-07T04:51:53;10.10;99.90
52181;DHT22;38158;53.338;6.514;2023-05-07T04:54:19;10.10;99.90
52181;DHT22;38158;53.338;6.514;2023-05-07T04:56:45;10.10;99.90
52181;DHT22;38158;53.338;6.514;2023-05-07T04:59:10;10.10;99.90
52181;DHT22;38158;53.338;6.514;2023-05-07T05:01:36;10.00;99.90
52181;DHT22;38158;53.338;6.514;2023-05-07T05:04:02;10.10;99.90
52181;DHT22;38158;53.338;6.514;2023-05-07T05:06:28;10.10;99.90
52181;DHT22;38158;53.338;6.514;2023-05-07T05:08:54;10.10;99.90
52181;DHT22;38158;53.338;6.514;2023-05-07T05:11:21;10.10;99.90
52181;DHT22;38158;53.338;6.514;2023-05-07T05:13:47;10.10;99.90
52181;DHT22;38158;53.338;6.514;2023-05-07T05:16:14;10.10;99.90
52181;DHT22;38158;53.338;6.514;2023-05-07T05:18:40;10.10;99.90
52181;DHT22;38158;53.338;6.514;2023-05-07T05:21:06;10.10;99.90
52181;DHT22;38158;53.338;6.514;2023-05-07T05:23:32;10.10;99.90
52181;DHT22;38158;53.338;6.514;2023-05-07T05:25:58;10.10;99.90
52181;DHT22;38158;53.338;6.514;2023-05-07T05:28:24;10.10;99.90
52181;DHT22;38158;53.338;6.514;2023-05-07T05:30:50;10.10;99.90
52181;DHT22;38158;53.338;6.514;2023-05-07T05:33:15;10.10;99.90
52181;DHT22;38158;53.338;6.514;2023-05-07T05:35:42;10.10;99.90
52181;DHT22;38158;53.338;6.514;2023-05-07T05:38:07;10.10;99.90
52181;DHT22;38158;53.338;6.514;2023-05-07T05:40:33;10.10;99.90
52181;DHT22;38158;53.338;6.514;2023-05-07T05:42:59;10.10;99.90
52181;DHT22;38158;53.338;6.514;2023-05-07T05:45:25;10.10;99.90
52181;DHT22;38158;53.338;6.514;2023-05-07T05:47:51;10.00;99.90
52181;DHT22;38158;53.338;6.514;2023-05-07T05:50:17;10.00;99.90
52181;DHT22;38158;53.338;6.514;2023-05-07T05:52:42;10.00;99.90
52181;DHT22;38158;53.338;6.514;2023-05-07T05:55:08;10.00;99.90
52181;DHT22;38158;53.338;6.514;2023-05-07T05:57:34;10.00;99.90
52181;DHT22;38158;53.338;6.514;2023-05-07T06:00:01;10.00;99.90
52181;DHT22;38158;53.338;6.514;2023-05-07T06:02:28;9.90;99.90
52181;DHT22;38158;53.338;6.514;2023-05-07T06:04:53;9.90;99.90
52181;DHT22;38158;53.338;6.514;2023-05-07T06:07:19;9.90;99.90
52181;DHT22;38158;53.338;6.514;2023-05-07T06:09:45;9.90;99.90
52181;DHT22;38158;53.338;6.514;2023-05-07T06:12:11;9.90;99.90
52181;DHT22;38158;53.338;6.514;2023-05-07T06:14:37;9.90;99.90
52181;DHT22;38158;53.338;6.514;2023-05-07T06:17:03;9.90;99.90
52181;DHT22;38158;53.338;6.514;2023-05-07T06:19:28;9.90;99.90
52181;DHT22;38158;53.338;6.514;2023-05-07T06:21:54;10.00;99.90
52181;DHT22;38158;53.338;6.514;2023-05-07T06:24:21;10.00;99.90
52181;DHT22;38158;53.338;6.514;2023-05-07T06:26:47;10.00;99.90
52181;DHT22;38158;53.338;6.514;2023-05-07T06:29:13;10.00;99.90
52181;DHT22;38158;53.338;6.514;2023-05-07T06:31:39;10.00;99.90
52181;DHT22;38158;53.338;6.514;2023-05-07T06:34:04;10.10;99.90
52181;DHT22;38158;53.338;6.514;2023-05-07T06:36:30;10.10;99.90
52181;DHT22;38158;53.338;6.514;2023-05-07T06:38:56;10.20;99.90
52181;DHT22;38158;53.338;6.514;2023-05-07T06:41:22;10.10;99.90
52181;DHT22;38158;53.338;6.514;2023-05-07T06:43:48;10.10;99.90
52181;DHT22;38158;53.338;6.514;2023-05-07T06:46:15;10.20;99.90
52181;DHT22;38158;53.338;6.514;2023-05-07T06:48:41;10.10;99.90
52181;DHT22;38158;53.338;6.514;2023-05-07T06:51:07;10.10;99.90
52181;DHT22;38158;53.338;6.514;2023-05-07T06:53:32;10.20;99.90
52181;DHT22;38158;53.338;6.514;2023-05-07T06:55:58;10.20;99.90
52181;DHT22;38158;53.338;6.514;2023-05-07T06:58:24;10.20;99.90
52181;DHT22;38158;53.338;6.514;2023-05-07T07:00:50;10.30;99.90
52181;DHT22;38158;53.338;6.514;2023-05-07T07:03:15;10.20;99.90
52181;DHT22;38158;53.338;6.514;2023-05-07T07:05:41;10.20;99.90
52181;DHT22;38158;53.338;6.514;2023-05-07T07:08:07;10.30;99.90
52181;DHT22;38158;53.338;6.514;2023-05-07T07:10:33;10.20;99.90
52181;DHT22;38158;53.338;6.514;2023-05-07T07:12:59;10.20;99.90
52181;DHT22;38158;53.338;6.514;2023-05-07T07:15:25;10.30;99.90
52181;DHT22;38158;53.338;6.514;2023-05-07T07:17:51;10.30;99.90
52181;DHT22;38158;53.338;6.514;2023-05-07T07:20:17;10.30;99.90
52181;DHT22;38158;53.338;6.514;2023-05-07T07:22:42;10.30;99.90
52181;DHT22;38158;53.338;6.514;2023-05-07T07:25:08;10.30;99.90
52181;DHT22;38158;53.338;6.514;2023-05-07T07:27:34;10.30;99.90
52181;DHT22;38158;53.338;6.514;2023-05-07T07:30:00;10.30;99.90
52181;DHT22;38158;53.338;6.514;2023-05-07T07:32:26;10.40;99.90
52181;DHT22;38158;53.338;6.514;2023-05-07T07:34:51;10.40;99.90
52181;DHT22;38158;53.338;6.514;2023-05-07T07:37:17;10.40;99.90
52181;DHT22;38158;53.338;6.514;2023-05-07T07:39:43;10.40;99.90
52181;DHT22;38158;53.338;6.514;2023-05-07T07:42:08;10.40;99.90
52181;DHT22;38158;53.338;6.514;2023-05-07T07:44:34;10.40;99.90
52181;DHT22;38158;53.338;6.514;2023-05-07T07:47:00;10.40;99.90
52181;DHT22;38158;53.338;6.514;2023-05-07T07:49:26;10.40;99.90
52181;DHT22;38158;53.338;6.514;2023-05-07T07:51:55;10.40;99.90
52181;DHT22;38158;53.338;6.514;2023-05-07T07:54:24;10.40;99.90
52181;DHT22;38158;53.338;6.514;2023-05-07T07:56:49;10.50;99.90
52181;DHT22;38158;53.338;6.514;2023-05-07T07:59:15;10.50;99.90
52181;DHT22;38158;53.338;6.514;2023-05-07T08:01:44;10.50;99.90
52181;DHT22;38158;53.338;6.514;2023-05-07T08:04:10;10.60;99.90
52181;DHT22;38158;53.338;6.514;2023-05-07T08:06:36;10.50;99.90
52181;DHT22;38158;53.338;6.514;2023-05-07T08:09:02;10.60;99.90
52181;DHT22;38158;53.338;6.514;2023-05-07T08:11:28;10.70;99.90
52181;DHT22;38158;53.338;6.514;2023-05-07T08:13:54;10.70;99.90
52181;DHT22;38158;53.338;6.514;2023-05-07T08:16:20;10.70;99.90
52181;DHT22;38158;53.338;6.514;2023-05-07T08:18:46;10.70;99.90
52181;DHT22;38158;53.338;6.514;2023-05-07T08:21:11;10.70;99.90
52181;DHT22;38158;53.338;6.514;2023-05-07T08:23:37;10.80;99.90
52181;DHT22;38158;53.338;6.514;2023-05-07T08:26:03;11.60;99.90
52181;DHT22;38158;53.338;6.514;2023-05-07T08:28:29;10.90;99.90
52181;DHT22;38158;53.338;6.514;2023-05-07T08:30:54;11.00;99.90
52181;DHT22;38158;53.338;6.514;2023-05-07T08:33:22;11.10;99.90
52181;DHT22;38158;53.338;6.514;2023-05-07T08:35:47;11.10;99.90
52181;DHT22;38158;53.338;6.514;2023-05-07T08:38:13;11.20;99.90
52181;DHT22;38158;53.338;6.514;2023-05-07T08:40:39;11.40;99.90
52181;DHT22;38158;53.338;6.514;2023-05-07T08:43:06;11.50;99.90
52181;DHT22;38158;53.338;6.514;2023-05-07T08:45:34;11.70;99.90
52181;DHT22;38158;53.338;6.514;2023-05-07T08:48:02;11.90;99.90
52181;DHT22;38158;53.338;6.514;2023-05-07T08:50:29;12.00;99.90
52181;DHT22;38158;53.338;6.514;2023-05-07T08:52:55;12.20;99.90
52181;DHT22;38158;53.338;6.514;2023-05-07T08:55:22;12.30;99.90
52181;DHT22;38158;53.338;6.514;2023-05-07T08:57:48;12.30;99.90
52181;DHT22;38158;53.338;6.514;2023-05-07T09:00:14;12.30;99.90
52181;DHT22;38158;53.338;6.514;2023-05-07T09:02:40;12.40;99.90
52181;DHT22;38158;53.338;6.514;2023-05-07T09:05:06;12.40;99.90
52181;DHT22;38158;53.338;6.514;2023-05-07T09:07:32;12.50;99.90
52181;DHT22;38158;53.338;6.514;2023-05-07T09:09:58;12.50;99.90
52181;DHT22;38158;53.338;6.514;2023-05-07T09:12:24;12.50;99.90
52181;DHT22;38158;53.338;6.514;2023-05-07T09:14:50;12.40;99.90
52181;DHT22;38158;53.338;6.514;2023-05-07T09:17:16;12.30;99.90
52181;DHT22;38158;53.338;6.514;2023-05-07T09:19:47;12.40;99.90
52181;DHT22;38158;53.338;6.514;2023-05-07T09:22:13;12.50;99.90
52181;DHT22;38158;53.338;6.514;2023-05-07T09:24:39;12.60;99.90
52181;DHT22;38158;53.338;6.514;2023-05-07T09:27:05;12.70;99.90
52181;DHT22;38158;53.338;6.514;2023-05-07T09:29:31;12.80;99.90
52181;DHT22;38158;53.338;6.514;2023-05-07T09:32:05;12.80;99.90
52181;DHT22;38158;53.338;6.514;2023-05-07T09:34:31;12.70;99.90
52181;DHT22;38158;53.338;6.514;2023-05-07T09:37:06;12.80;99.90
52181;DHT22;38158;53.338;6.514;2023-05-07T09:39:42;12.90;99.90
52181;DHT22;38158;53.338;6.514;2023-05-07T09:42:08;12.90;99.90
52181;DHT22;38158;53.338;6.514;2023-05-07T09:44:34;13.00;99.90
52181;DHT22;38158;53.338;6.514;2023-05-07T09:47:01;13.10;99.90
52181;DHT22;38158;53.338;6.514;2023-05-07T09:49:30;13.20;99.90
52181;DHT22;38158;53.338;6.514;2023-05-07T09:52:00;13.20;99.90
52181;DHT22;38158;53.338;6.514;2023-05-07T09:54:26;13.30;99.90
52181;DHT22;38158;53.338;6.514;2023-05-07T09:56:54;13.40;99.90
52181;DHT22;38158;53.338;6.514;2023-05-07T09:59:21;13.50;99.90
52181;DHT22;38158;53.338;6.514;2023-05-07T10:01:49;13.50;99.90
52181;DHT22;38158;53.338;6.514;2023-05-07T10:04:16;13.60;99.90
52181;DHT22;38158;53.338;6.514;2023-05-07T10:06:43;13.60;99.90
52181;DHT22;38158;53.338;6.514;2023-05-07T10:09:09;13.70;99.90
52181;DHT22;38158;53.338;6.514;2023-05-07T10:11:36;13.80;99.90
52181;DHT22;38158;53.338;6.514;2023-05-07T10:14:03;13.90;99.90
52181;DHT22;38158;53.338;6.514;2023-05-07T10:16:32;14.00;99.90
52181;DHT22;38158;53.338;6.514;2023-05-07T10:19:06;14.00;99.90
52181;DHT22;38158;53.338;6.514;2023-05-07T10:21:40;14.10;99.90
52181;DHT22;38158;53.338;6.514;2023-05-07T10:24:16;14.10;99.90
52181;DHT22;38158;53.338;6.514;2023-05-07T10:26:46;14.10;99.90
52181;DHT22;38158;53.338;6.514;2023-05-07T10:34:56;14.10;99.90
52181;DHT22;38158;53.338;6.514;2023-05-07T10:37:24;14.20;99.90
52181;DHT22;38158;53.338;6.514;2023-05-07T10:39:51;14.30;99.90
52181;DHT22;38158;53.338;6.514;2023-05-07T10:42:17;14.50;99.90
52181;DHT22;38158;53.338;6.514;2023-05-07T10:44:42;14.50;99.90
52181;DHT22;38158;53.338;6.514;2023-05-07T10:47:13;14.50;99.90
52181;DHT22;38158;53.338;6.514;2023-05-07T10:52:18;14.70;99.90
52181;DHT22;38158;53.338;6.514;2023-05-07T10:54:45;14.80;99.90
52181;DHT22;38158;53.338;6.514;2023-05-07T10:59:56;14.90;99.90
52181;DHT22;38158;53.338;6.514;2023-05-07T11:02:21;15.00;99.90
52181;DHT22;38158;53.338;6.514;2023-05-07T11:05:22;15.00;99.90
52181;DHT22;38158;53.338;6.514;2023-05-07T11:08:00;15.00;99.90
52181;DHT22;38158;53.338;6.514;2023-05-07T11:10:48;15.00;99.90
52181;DHT22;38158;53.338;6.514;2023-05-07T11:13:15;15.10;99.90
52181;DHT22;38158;53.338;6.514;2023-05-07T11:15:46;15.20;99.90
52181;DHT22;38158;53.338;6.514;2023-05-07T11:18:14;15.30;99.90
52181;DHT22;38158;53.338;6.514;2023-05-07T11:20:52;15.40;99.90
52181;DHT22;38158;53.338;6.514;2023-05-07T11:26:05;15.50;99.90
52181;DHT22;38158;53.338;6.514;2023-05-07T11:28:42;15.60;99.90
52181;DHT22;38158;53.338;6.514;2023-05-07T11:31:09;15.70;99.90
52181;DHT22;38158;53.338;6.514;2023-05-07T11:33:37;15.70;99.90
52181;DHT22;38158;53.338;6.514;2023-05-07T11:36:03;15.80;99.90
52181;DHT22;38158;53.338;6.514;2023-05-07T11:38:36;15.70;99.90
52181;DHT22;38158;53.338;6.514;2023-05-07T11:41:03;15.70;99.90
52181;DHT22;38158;53.338;6.514;2023-05-07T11:43:34;15.70;99.90
52181;DHT22;38158;53.338;6.514;2023-05-07T11:46:11;15.80;99.90
52181;DHT22;38158;53.338;6.514;2023-05-07T11:48:38;15.80;99.90
52181;DHT22;38158;53.338;6.514;2023-05-07T11:51:04;15.70;99.90
52181;DHT22;38158;53.338;6.514;2023-05-07T11:53:38;15.70;99.90
52181;DHT22;38158;53.338;6.514;2023-05-07T11:58:34;15.70;99.90
52181;DHT22;38158;53.338;6.514;2023-05-07T12:01:00;15.70;99.90
52181;DHT22;38158;53.338;6.514;2023-05-07T12:03:26;15.80;99.90
52181;DHT22;38158;53.338;6.514;2023-05-07T12:05:51;16.00;99.90
52181;DHT22;38158;53.338;6.514;2023-05-07T12:08:18;16.10;99.90
52181;DHT22;38158;53.338;6.514;2023-05-07T12:10:45;16.10;99.90
52181;DHT22;38158;53.338;6.514;2023-05-07T12:13:20;16.20;99.90
52181;DHT22;38158;53.338;6.514;2023-05-07T12:15:46;16.20;99.90
52181;DHT22;38158;53.338;6.514;2023-05-07T12:18:12;16.20;99.90
52181;DHT22;38158;53.338;6.514;2023-05-07T12:20:39;16.40;99.90
52181;DHT22;38158;53.338;6.514;2023-05-07T12:23:05;16.40;99.90
52181;DHT22;38158;53.338;6.514;2023-05-07T12:25:34;16.30;99.90
52181;DHT22;38158;53.338;6.514;2023-05-07T12:28:02;16.30;99.90
52181;DHT22;38158;53.338;6.514;2023-05-07T12:30:29;16.20;99.90
52181;DHT22;38158;53.338;6.514;2023-05-07T12:32:55;16.20;99.90
52181;DHT22;38158;53.338;6.514;2023-05-07T12:35:31;16.20;99.90
52181;DHT22;38158;53.338;6.514;2023-05-07T12:37:57;16.20;99.90
52181;DHT22;38158;53.338;6.514;2023-05-07T12:40:44;16.20;99.90
52181;DHT22;38158;53.338;6.514;2023-05-07T12:43:19;16.40;99.90
52181;DHT22;38158;53.338;6.514;2023-05-07T12:45:50;16.50;99.90
52181;DHT22;38158;53.338;6.514;2023-05-07T12:48:15;16.70;99.90
52181;DHT22;38158;53.338;6.514;2023-05-07T12:50:42;16.90;99.90
52181;DHT22;38158;53.338;6.514;2023-05-07T12:53:10;17.10;99.90
52181;DHT22;38158;53.338;6.514;2023-05-07T12:55:47;17.10;99.90
52181;DHT22;38158;53.338;6.514;2023-05-07T12:58:22;17.20;99.90
52181;DHT22;38158;53.338;6.514;2023-05-07T13:00:49;17.20;99.90
52181;DHT22;38158;53.338;6.514;2023-05-07T13:03:41;17.20;99.90
52181;DHT22;38158;53.338;6.514;2023-05-07T13:06:09;17.20;99.90
52181;DHT22;38158;53.338;6.514;2023-05-07T13:08:41;17.20;99.90
52181;DHT22;38158;53.338;6.514;2023-05-07T13:11:11;17.20;99.90
52181;DHT22;38158;53.338;6.514;2023-05-07T13:13:38;17.10;99.90
52181;DHT22;38158;53.338;6.514;2023-05-07T13:16:05;17.10;99.90
52181;DHT22;38158;53.338;6.514;2023-05-07T13:18:32;17.00;99.90
52181;DHT22;38158;53.338;6.514;2023-05-07T13:20:59;17.00;99.90
52181;DHT22;38158;53.338;6.514;2023-05-07T13:23:25;17.00;99.90
52181;DHT22;38158;53.338;6.514;2023-05-07T13:25:51;16.90;99.90
52181;DHT22;38158;53.338;6.514;2023-05-07T13:28:19;16.90;99.90
52181;DHT22;38158;53.338;6.514;2023-05-07T13:30:46;16.80;99.90
52181;DHT22;38158;53.338;6.514;2023-05-07T13:33:12;16.80;99.90
52181;DHT22;38158;53.338;6.514;2023-05-07T13:35:38;16.90;99.90
52181;DHT22;38158;53.338;6.514;2023-05-07T13:38:04;17.00;99.90
52181;DHT22;38158;53.338;6.514;2023-05-07T13:40:30;17.10;99.90
52181;DHT22;38158;53.338;6.514;2023-05-07T13:42:58;17.30;99.90
52181;DHT22;38158;53.338;6.514;2023-05-07T13:45:24;17.40;99.90
52181;DHT22;38158;53.338;6.514;2023-05-07T13:47:51;17.50;99.90
52181;DHT22;38158;53.338;6.514;2023-05-07T13:50:17;17.60;99.90
52181;DHT22;38158;53.338;6.514;2023-05-07T13:52:44;17.70;99.90
52181;DHT22;38158;53.338;6.514;2023-05-07T13:55:23;17.70;99.90
52181;DHT22;38158;53.338;6.514;2023-05-07T13:57:56;17.70;99.90
52181;DHT22;38158;53.338;6.514;2023-05-07T14:00:22;17.60;99.90
52181;DHT22;38158;53.338;6.514;2023-05-07T14:02:48;17.70;99.90
52181;DHT22;38158;53.338;6.514;2023-05-07T14:05:14;17.70;99.90
52181;DHT22;38158;53.338;6.514;2023-05-07T14:07:39;17.70;99.90
52181;DHT22;38158;53.338;6.514;2023-05-07T14:10:05;17.70;99.90
52181;DHT22;38158;53.338;6.514;2023-05-07T14:12:32;17.80;99.90
52181;DHT22;38158;53.338;6.514;2023-05-07T14:14:58;17.80;99.90
52181;DHT22;38158;53.338;6.514;2023-05-07T14:17:24;17.80;99.90
52181;DHT22;38158;53.338;6.514;2023-05-07T14:19:52;17.80;99.90
52181;DHT22;38158;53.338;6.514;2023-05-07T14:22:20;17.80;99.90
52181;DHT22;38158;53.338;6.514;2023-05-07T14:24:46;17.80;99.90
52181;DHT22;38158;53.338;6.514;2023-05-07T14:27:12;17.80;99.90
52181;DHT22;38158;53.338;6.514;2023-05-07T14:29:38;17.80;99.90
52181;DHT22;38158;53.338;6.514;2023-05-07T14:32:03;17.70;99.90
52181;DHT22;38158;53.338;6.514;2023-05-07T14:34:29;17.80;99.90
52181;DHT22;38158;53.338;6.514;2023-05-07T14:36:55;17.80;99.90
52181;DHT22;38158;53.338;6.514;2023-05-07T14:39:21;17.80;99.90
52181;DHT22;38158;53.338;6.514;2023-05-07T14:41:47;17.80;99.90
52181;DHT22;38158;53.338;6.514;2023-05-07T14:44:12;17.90;99.90
52181;DHT22;38158;53.338;6.514;2023-05-07T14:46:38;17.90;99.90
52181;DHT22;38158;53.338;6.514;2023-05-07T14:49:04;17.90;99.90
52181;DHT22;38158;53.338;6.514;2023-05-07T14:51:30;18.00;99.90
52181;DHT22;38158;53.338;6.514;2023-05-07T14:53:56;18.10;99.90
52181;DHT22;38158;53.338;6.514;2023-05-07T14:56:22;18.20;99.90
52181;DHT22;38158;53.338;6.514;2023-05-07T14:58:48;18.20;99.90
52181;DHT22;38158;53.338;6.514;2023-05-07T15:01:14;18.20;99.90
52181;DHT22;38158;53.338;6.514;2023-05-07T15:03:40;18.20;99.90
52181;DHT22;38158;53.338;6.514;2023-05-07T15:06:06;18.20;99.90
52181;DHT22;38158;53.338;6.514;2023-05-07T15:08:31;18.20;99.90
52181;DHT22;38158;53.338;6.514;2023-05-07T15:10:57;18.30;99.90
52181;DHT22;38158;53.338;6.514;2023-05-07T15:13:23;18.20;99.90
52181;DHT22;38158;53.338;6.514;2023-05-07T15:15:48;18.20;99.90
52181;DHT22;38158;53.338;6.514;2023-05-07T15:18:15;18.20;99.90
52181;DHT22;38158;53.338;6.514;2023-05-07T15:20:42;18.30;99.90
52181;DHT22;38158;53.338;6.514;2023-05-07T15:23:08;18.50;99.90
52181;DHT22;38158;53.338;6.514;2023-05-07T15:25:40;18.60;99.90
52181;DHT22;38158;53.338;6.514;2023-05-07T15:28:06;18.80;99.90
52181;DHT22;38158;53.338;6.514;2023-05-07T15:30:32;18.90;99.90
52181;DHT22;38158;53.338;6.514;2023-05-07T15:32:58;19.00;99.90
52181;DHT22;38158;53.338;6.514;2023-05-07T15:35:23;19.00;99.90
52181;DHT22;38158;53.338;6.514;2023-05-07T15:37:51;19.10;99.90
52181;DHT22;38158;53.338;6.514;2023-05-07T15:40:17;19.10;99.90
52181;DHT22;38158;53.338;6.514;2023-05-07T15:42:45;19.10;99.90
52181;DHT22;38158;53.338;6.514;2023-05-07T15:45:11;19.30;99.90